createdAt,value
2022-10-16T00:01:51.693Z,13.95
2022-10-16T00:04:20.382Z,13.92
2022-10-16T00:06:49.021Z,13.91
2022-10-16T00:09:17.995Z,13.91
2022-10-16T00:11:46.665Z,13.90
2022-10-16T00:14:19.340Z,13.87
2022-10-16T00:16:47.896Z,13.86
2022-10-16T00:19:18.739Z,13.87
2022-10-16T00:21:47.831Z,13.89
2022-10-16T00:24:16.399Z,13.88
2022-10-16T00:26:45.413Z,13.89
2022-10-16T00:29:13.978Z,13.88
2022-10-16T00:31:43.469Z,13.88
2022-10-16T00:34:12.165Z,13.89
2022-10-16T00:36:42.013Z,13.88
2022-10-16T00:39:10.591Z,13.88
2022-10-16T00:41:39.693Z,13.86
2022-10-16T00:44:46.436Z,13.86
2022-10-16T00:47:23.405Z,13.87
2022-10-16T00:49:57.127Z,13.85
2022-10-16T00:52:27.576Z,13.85
2022-10-16T00:54:58.123Z,13.86
2022-10-16T00:57:27.679Z,13.86
2022-10-16T00:59:58.020Z,13.85
2022-10-16T01:02:27.081Z,13.86
2022-10-16T01:04:57.090Z,13.86
2022-10-16T01:07:43.903Z,13.86
2022-10-16T01:10:26.561Z,13.86
2022-10-16T01:13:04.466Z,13.85
2022-10-16T01:18:16.998Z,13.88
2022-10-16T01:20:55.940Z,13.89
2022-10-16T01:23:51.878Z,13.88
2022-10-16T01:26:47.367Z,13.88
2022-10-16T01:29:23.386Z,13.89
2022-10-16T01:32:01.845Z,13.89
2022-10-16T01:34:41.192Z,13.88
2022-10-16T01:37:18.157Z,13.88
2022-10-16T01:39:52.646Z,13.89
2022-10-16T01:42:26.805Z,13.88
2022-10-16T01:45:01.085Z,13.89
2022-10-16T01:47:34.028Z,13.87
2022-10-16T01:50:07.724Z,13.89
2022-10-16T01:52:42.514Z,13.90
2022-10-16T01:55:15.120Z,13.91
2022-10-16T01:57:52.672Z,13.91
2022-10-16T02:00:26.745Z,13.92
2022-10-16T02:03:00.423Z,13.90
2022-10-16T02:05:36.857Z,13.92
2022-10-16T02:08:06.288Z,13.92
2022-10-16T02:10:38.579Z,13.94
2022-10-16T02:13:12.849Z,13.93
2022-10-16T02:15:43.272Z,13.94
2022-10-16T02:18:12.898Z,13.95
2022-10-16T02:20:54.258Z,13.98
2022-10-16T02:23:36.080Z,13.98
2022-10-16T02:26:11.898Z,13.99
2022-10-16T02:28:49.734Z,14.01
2022-10-16T02:31:28.922Z,14.03
2022-10-16T02:34:01.331Z,14.04
2022-10-16T02:36:30.510Z,14.03
2022-10-16T02:39:02.105Z,14.03
2022-10-16T02:41:30.654Z,14.03
2022-10-16T02:43:59.823Z,14.05
2022-10-16T02:46:29.814Z,14.08
2022-10-16T02:48:58.726Z,14.09
2022-10-16T02:51:27.939Z,14.09
2022-10-16T02:53:57.542Z,14.10
2022-10-16T02:56:26.396Z,14.11
2022-10-16T02:58:55.528Z,14.12
2022-10-16T03:01:24.897Z,14.13
2022-10-16T03:03:55.519Z,14.14
2022-10-16T03:06:25.291Z,14.16
2022-10-16T03:08:54.122Z,14.16
2022-10-16T03:11:23.322Z,14.18
2022-10-16T03:13:51.924Z,14.18
2022-10-16T03:16:20.588Z,14.17
2022-10-16T03:18:51.837Z,14.19
2022-10-16T03:21:22.809Z,14.20
2022-10-16T03:23:51.424Z,14.20
2022-10-16T03:26:21.371Z,14.21
2022-10-16T03:28:51.045Z,14.21
2022-10-16T03:31:20.232Z,14.22
2022-10-16T03:33:50.118Z,14.22
2022-10-16T03:36:21.646Z,14.23
2022-10-16T03:38:50.684Z,14.23
2022-10-16T03:41:20.782Z,14.24
2022-10-16T03:43:50.615Z,14.25
2022-10-16T03:46:19.122Z,14.25
2022-10-16T03:48:48.907Z,14.25
2022-10-16T03:51:17.466Z,14.23
2022-10-16T03:53:47.925Z,14.24
2022-10-16T03:56:16.520Z,14.26
2022-10-16T03:58:45.798Z,14.25
2022-10-16T04:01:14.492Z,14.27
2022-10-16T04:03:43.190Z,14.27
2022-10-16T04:06:12.310Z,14.27
2022-10-16T04:08:41.204Z,14.26
2022-10-16T04:11:11.679Z,14.26
2022-10-16T04:13:40.423Z,14.27
2022-10-16T04:16:09.268Z,14.28
2022-10-16T04:18:38.353Z,14.27
2022-10-16T04:21:08.703Z,14.28
2022-10-16T04:23:37.862Z,14.29
2022-10-16T04:26:06.709Z,14.30
2022-10-16T04:28:37.217Z,14.31
2022-10-16T04:31:07.030Z,14.32
2022-10-16T04:33:36.687Z,14.33
2022-10-16T04:36:06.853Z,14.34
2022-10-16T04:38:35.992Z,14.35
2022-10-16T04:41:05.617Z,14.35
2022-10-16T04:43:37.222Z,14.35
2022-10-16T04:46:09.740Z,14.36
2022-10-16T04:48:39.236Z,14.36
2022-10-16T04:51:08.063Z,14.39
2022-10-16T04:53:36.689Z,14.38
2022-10-16T04:56:05.432Z,14.39
2022-10-16T04:58:41.236Z,14.37
2022-10-16T05:01:11.305Z,14.37
2022-10-16T05:03:40.871Z,14.38
2022-10-16T05:06:10.617Z,14.38
2022-10-16T05:08:40.938Z,14.38
2022-10-16T05:11:09.393Z,14.39
2022-10-16T05:13:39.692Z,14.40
2022-10-16T05:16:08.843Z,14.39
2022-10-16T05:18:37.322Z,14.39
2022-10-16T05:21:06.791Z,14.41
2022-10-16T05:23:38.957Z,14.42
2022-10-16T05:26:07.630Z,14.42
2022-10-16T05:28:40.095Z,14.42
2022-10-16T05:31:11.043Z,14.43
2022-10-16T05:33:40.338Z,14.43
2022-10-16T05:36:11.323Z,14.43
2022-10-16T05:38:40.214Z,14.45
2022-10-16T05:41:09.581Z,14.44
2022-10-16T05:43:40.220Z,14.44
2022-10-16T05:46:09.808Z,14.45
2022-10-16T05:48:38.475Z,14.45
2022-10-16T05:51:12.120Z,14.44
2022-10-16T05:53:46.068Z,14.42
2022-10-16T05:56:15.117Z,14.44
2022-10-16T05:58:47.337Z,14.43
2022-10-16T06:01:19.260Z,14.43
2022-10-16T06:03:47.942Z,14.45
2022-10-16T06:06:19.659Z,14.45
2022-10-16T06:08:49.495Z,14.44
2022-10-16T06:11:21.971Z,14.45
2022-10-16T06:13:55.855Z,14.45
2022-10-16T06:16:24.863Z,14.47
2022-10-16T06:18:55.989Z,14.49
2022-10-16T06:21:27.868Z,14.49
2022-10-16T06:24:00.349Z,14.49
2022-10-16T06:26:33.240Z,14.49
2022-10-16T06:29:04.221Z,14.50
2022-10-16T06:31:34.600Z,14.52
2022-10-16T06:34:06.030Z,14.50
2022-10-16T06:36:47.558Z,14.52
2022-10-16T06:39:16.884Z,14.51
2022-10-16T06:41:46.093Z,14.51
2022-10-16T06:44:16.031Z,14.53
2022-10-16T06:46:45.106Z,14.54
2022-10-16T06:49:13.606Z,14.54
2022-10-16T06:51:43.505Z,14.56
2022-10-16T06:54:12.775Z,14.56
2022-10-16T06:56:41.325Z,14.56
2022-10-16T06:59:09.914Z,14.57
2022-10-16T07:01:40.043Z,14.58
2022-10-16T07:04:09.930Z,14.58
2022-10-16T07:06:38.910Z,14.61
2022-10-16T07:09:11.526Z,14.60
2022-10-16T07:11:44.334Z,14.62
2022-10-16T07:14:20.030Z,14.64
2022-10-16T07:16:50.875Z,14.64
2022-10-16T07:19:19.421Z,14.66
2022-10-16T07:21:48.018Z,14.67
2022-10-16T07:24:19.104Z,14.69
2022-10-16T07:26:48.447Z,14.69
2022-10-16T07:29:20.923Z,14.72
2022-10-16T07:31:51.924Z,14.74
2022-10-16T07:34:22.750Z,14.74
2022-10-16T07:36:51.772Z,14.77
2022-10-16T07:39:21.324Z,14.77
2022-10-16T07:41:50.071Z,14.78
2022-10-16T07:44:18.791Z,14.79
2022-10-16T07:46:48.425Z,14.80
2022-10-16T07:49:19.385Z,14.81
2022-10-16T07:51:48.323Z,14.82
2022-10-16T07:54:16.991Z,14.82
2022-10-16T07:56:46.289Z,14.81
2022-10-16T07:59:15.273Z,14.83
2022-10-16T08:01:44.622Z,14.85
2022-10-16T08:04:14.097Z,14.87
2022-10-16T08:06:44.288Z,14.90
2022-10-16T08:09:13.039Z,14.91
2022-10-16T08:11:41.557Z,14.92
2022-10-16T08:14:10.528Z,14.93
2022-10-16T08:16:41.886Z,14.96
2022-10-16T08:19:10.442Z,14.97
2022-10-16T08:21:39.818Z,14.99
2022-10-16T08:24:10.348Z,15.01
2022-10-16T08:26:39.099Z,15.03
2022-10-16T08:29:08.176Z,15.03
2022-10-16T08:31:37.254Z,15.03
2022-10-16T08:34:05.897Z,15.06
2022-10-16T08:36:35.044Z,15.07
2022-10-16T08:39:03.680Z,15.07
2022-10-16T08:42:16.113Z,15.11
2022-10-16T08:45:22.460Z,15.15
2022-10-16T08:48:10.970Z,15.17
2022-10-16T08:50:51.105Z,15.19
2022-10-16T08:53:26.912Z,15.24
2022-10-16T08:55:56.662Z,15.26
2022-10-16T08:58:32.479Z,15.28
2022-10-16T09:01:05.764Z,15.31
2022-10-16T09:04:25.250Z,15.34
2022-10-16T09:07:00.087Z,15.41
2022-10-16T09:09:56.848Z,15.47
2022-10-16T09:12:35.906Z,15.52
2022-10-16T09:15:26.326Z,15.57
2022-10-16T09:18:08.643Z,15.64
2022-10-16T09:20:53.901Z,15.70
2022-10-16T09:23:31.074Z,15.74
2022-10-16T09:26:02.397Z,15.80
2022-10-16T09:28:31.535Z,15.84
2022-10-16T09:31:02.004Z,15.87
2022-10-16T09:33:38.200Z,15.92
2022-10-16T09:36:08.797Z,15.97
2022-10-16T09:38:40.011Z,16.04
2022-10-16T09:41:22.227Z,16.09
2022-10-16T09:43:57.003Z,16.15
2022-10-16T09:46:32.328Z,16.21
2022-10-16T09:49:04.054Z,16.25
2022-10-16T09:51:52.000Z,16.30
2022-10-16T09:54:25.996Z,16.35
2022-10-16T09:56:56.454Z,16.41
2022-10-16T09:59:29.319Z,16.47
2022-10-16T10:02:06.932Z,16.51
2022-10-16T10:04:46.801Z,16.54
2022-10-16T10:07:27.037Z,16.56
2022-10-16T10:09:59.133Z,16.63
2022-10-16T10:12:31.065Z,16.71
2022-10-16T10:15:09.021Z,16.77
2022-10-16T10:17:51.457Z,16.83
2022-10-16T10:20:34.095Z,16.85
2022-10-16T10:23:16.828Z,16.91
2022-10-16T10:26:00.027Z,16.96
2022-10-16T10:29:03.089Z,17.01
2022-10-16T10:31:50.468Z,17.03
2022-10-16T10:34:56.733Z,17.04
2022-10-16T10:38:01.674Z,17.06
2022-10-16T10:40:48.031Z,17.08
2022-10-16T10:43:42.277Z,17.09
2022-10-16T10:46:24.389Z,17.09
2022-10-16T10:49:19.237Z,17.10
2022-10-16T10:52:03.393Z,17.13
2022-10-16T10:54:43.685Z,17.16
2022-10-16T10:57:24.499Z,17.20
2022-10-16T11:00:21.604Z,17.21
2022-10-16T11:03:03.628Z,17.26
2022-10-16T11:05:44.792Z,17.27
2022-10-16T11:08:23.511Z,17.29
2022-10-16T11:10:59.975Z,17.30
2022-10-16T11:13:38.601Z,17.31
2022-10-16T11:16:21.449Z,17.27
2022-10-16T11:19:01.314Z,17.34
2022-10-16T11:21:50.302Z,17.37
2022-10-16T11:24:35.184Z,17.41
2022-10-16T11:27:12.209Z,17.40
2022-10-16T11:29:52.472Z,17.41
2022-10-16T11:32:32.388Z,17.47
2022-10-16T11:35:14.311Z,17.47
2022-10-16T11:37:49.059Z,17.48
2022-10-16T11:40:31.695Z,17.55
2022-10-16T11:43:21.028Z,17.60
2022-10-16T11:45:55.734Z,17.66
2022-10-16T11:48:34.912Z,17.72
2022-10-16T11:51:19.747Z,17.75
2022-10-16T11:54:01.690Z,17.77
2022-10-16T11:56:49.338Z,17.77
2022-10-16T11:59:29.853Z,17.79
2022-10-16T12:02:26.575Z,17.82
2022-10-16T12:05:17.088Z,17.84
2022-10-16T12:08:00.745Z,17.86
2022-10-16T12:13:38.729Z,17.91
2022-10-16T12:16:25.817Z,17.93
2022-10-16T12:19:15.494Z,17.97
2022-10-16T12:21:49.907Z,18.01
2022-10-16T12:24:39.854Z,18.04
2022-10-16T12:27:40.619Z,18.05
2022-10-16T12:30:29.013Z,18.09
2022-10-16T12:33:03.546Z,18.10
2022-10-16T12:35:39.580Z,18.09
2022-10-16T12:38:19.592Z,18.08
2022-10-16T12:40:58.995Z,18.07
2022-10-16T12:43:40.093Z,18.07
2022-10-16T12:46:41.100Z,18.08
2022-10-16T12:49:31.825Z,18.06
2022-10-16T12:52:01.530Z,18.06
2022-10-16T12:54:38.257Z,18.07
2022-10-16T12:57:31.174Z,18.05
2022-10-16T13:00:14.320Z,18.03
2022-10-16T13:03:25.881Z,18.02
2022-10-16T13:06:31.417Z,18.01
2022-10-16T13:09:42.715Z,18.02
2022-10-16T13:15:34.748Z,18.04
2022-10-16T13:18:18.612Z,18.06
2022-10-16T13:21:21.193Z,18.07
2022-10-16T13:24:03.181Z,18.07
2022-10-16T13:26:45.783Z,18.09
2022-10-16T13:29:17.127Z,18.10
2022-10-16T13:31:46.781Z,18.13
2022-10-16T13:34:25.926Z,18.13
2022-10-16T13:36:58.725Z,18.14
2022-10-16T13:39:44.022Z,18.15
2022-10-16T13:42:28.144Z,18.17
2022-10-16T13:45:21.593Z,18.17
2022-10-16T13:48:04.567Z,18.17
2022-10-16T13:50:37.479Z,18.17
2022-10-16T13:53:09.031Z,18.18
2022-10-16T13:55:47.611Z,18.21
2022-10-16T13:58:18.137Z,18.22
2022-10-16T14:00:59.868Z,18.23
2022-10-16T14:03:30.840Z,18.24
2022-10-16T14:06:05.470Z,18.23
2022-10-16T14:08:35.802Z,18.25
2022-10-16T14:11:05.168Z,18.24
2022-10-16T14:13:39.793Z,18.25
2022-10-16T14:16:13.411Z,18.26
2022-10-16T14:18:45.769Z,18.26
2022-10-16T14:21:22.181Z,18.22
2022-10-16T14:23:51.034Z,18.21
2022-10-16T14:26:25.075Z,18.19
2022-10-16T14:29:13.965Z,18.18
2022-10-16T14:31:47.992Z,18.17
2022-10-16T14:34:35.275Z,18.17
2022-10-16T14:37:41.171Z,18.14
2022-10-16T14:40:18.547Z,18.14
2022-10-16T14:42:49.510Z,18.13
2022-10-16T14:45:26.167Z,18.09
2022-10-16T14:47:59.623Z,18.07
2022-10-16T14:50:28.666Z,18.07
2022-10-16T14:53:01.545Z,18.06
2022-10-16T14:55:30.227Z,18.07
2022-10-16T14:58:00.860Z,18.05
2022-10-16T15:03:13.233Z,18.03
2022-10-16T15:05:43.183Z,18.03
2022-10-16T15:08:17.662Z,18.04
2022-10-16T15:10:47.406Z,18.05
2022-10-16T15:13:16.787Z,18.06
2022-10-16T15:15:48.584Z,18.04
2022-10-16T15:18:21.530Z,18.06
2022-10-16T15:20:53.810Z,18.05
2022-10-16T15:25:57.889Z,18.04
2022-10-16T15:28:27.786Z,18.04
2022-10-16T15:30:58.703Z,18.04
2022-10-16T15:33:37.273Z,18.02
2022-10-16T15:36:10.306Z,18.03
2022-10-16T15:38:40.924Z,18.01
2022-10-16T15:41:10.615Z,18.00
2022-10-16T15:43:41.039Z,17.98
2022-10-16T15:46:21.075Z,17.98
2022-10-16T15:48:50.799Z,17.97
2022-10-16T15:51:21.239Z,17.96
2022-10-16T15:53:52.248Z,17.93
2022-10-16T15:56:23.267Z,17.92
2022-10-16T15:58:52.034Z,17.89
2022-10-16T16:01:20.937Z,17.88
2022-10-16T16:03:50.400Z,17.86
2022-10-16T16:06:19.819Z,17.83
2022-10-16T16:08:48.959Z,17.83
2022-10-16T16:11:22.027Z,17.82
2022-10-16T16:13:51.130Z,17.79
2022-10-16T16:16:21.527Z,17.77
2022-10-16T16:18:51.143Z,17.76
2022-10-16T16:21:20.476Z,17.75
2022-10-16T16:23:49.095Z,17.74
2022-10-16T16:26:28.113Z,17.72
2022-10-16T16:28:58.172Z,17.66
2022-10-16T16:31:28.980Z,17.65
2022-10-16T16:33:59.196Z,17.62
2022-10-16T16:36:28.415Z,17.60
2022-10-16T16:38:57.077Z,17.57
2022-10-16T16:41:31.227Z,17.51
2022-10-16T16:44:08.531Z,17.49
2022-10-16T16:46:38.303Z,17.48
2022-10-16T16:49:08.323Z,17.47
2022-10-16T16:51:39.849Z,17.43
2022-10-16T16:54:10.631Z,17.38
2022-10-16T16:56:44.153Z,17.33
2022-10-16T16:59:23.681Z,17.27
2022-10-16T17:01:56.984Z,17.26
2022-10-16T17:04:28.847Z,17.22
2022-10-16T17:06:58.379Z,17.18
2022-10-16T17:09:28.006Z,17.16
2022-10-16T17:11:58.420Z,17.10
2022-10-16T17:14:27.124Z,17.04
2022-10-16T17:16:55.974Z,17.01
2022-10-16T17:19:24.695Z,16.95
2022-10-16T17:21:53.955Z,16.89
2022-10-16T17:24:23.658Z,16.84
2022-10-16T17:26:53.971Z,16.80
2022-10-16T17:29:24.229Z,16.77
2022-10-16T17:31:52.962Z,16.73
2022-10-16T17:34:22.774Z,16.72
2022-10-16T17:36:51.496Z,16.71
2022-10-16T17:39:21.040Z,16.69
2022-10-16T17:41:50.959Z,16.67
2022-10-16T17:44:23.394Z,16.65
2022-10-16T17:46:56.154Z,16.63
2022-10-16T17:49:26.181Z,16.64
2022-10-16T17:51:56.105Z,16.63
2022-10-16T17:54:24.785Z,16.62
2022-10-16T17:56:53.979Z,16.63
2022-10-16T17:59:23.369Z,16.60
2022-10-16T18:01:53.822Z,16.59
2022-10-16T18:04:22.566Z,16.55
2022-10-16T18:06:51.120Z,16.55
2022-10-16T18:09:22.043Z,16.55
2022-10-16T18:11:56.495Z,16.53
2022-10-16T18:14:25.017Z,16.54
2022-10-16T18:16:55.234Z,16.53
2022-10-16T18:19:25.267Z,16.53
2022-10-16T18:21:55.726Z,16.54
2022-10-16T18:24:25.922Z,16.51
2022-10-16T18:26:58.296Z,16.47
2022-10-16T18:29:29.017Z,16.46
2022-10-16T18:32:01.361Z,16.42
2022-10-16T18:34:30.224Z,16.39
2022-10-16T18:37:00.568Z,16.35
2022-10-16T18:39:29.600Z,16.35
2022-10-16T18:42:00.123Z,16.36
2022-10-16T18:44:31.318Z,16.35
2022-10-16T18:47:02.530Z,16.35
2022-10-16T18:49:31.391Z,16.34
2022-10-16T18:52:03.056Z,16.31
2022-10-16T18:54:32.661Z,16.29
2022-10-16T18:57:01.214Z,16.23
2022-10-16T18:59:30.366Z,16.22
2022-10-16T19:02:00.842Z,16.20
2022-10-16T19:04:34.202Z,16.18
2022-10-16T19:07:04.806Z,16.14
2022-10-16T19:09:33.621Z,16.14
2022-10-16T19:12:03.689Z,16.11
2022-10-16T19:14:34.854Z,16.10
2022-10-16T19:17:06.375Z,16.09
2022-10-16T19:19:35.800Z,16.10
2022-10-16T19:22:14.425Z,16.09
2022-10-16T19:24:45.609Z,16.06
2022-10-16T19:27:15.863Z,16.02
2022-10-16T19:29:44.310Z,15.97
2022-10-16T19:32:14.332Z,15.96
2022-10-16T19:34:43.219Z,15.97
2022-10-16T19:37:12.054Z,15.95
2022-10-16T19:39:41.638Z,15.91
2022-10-16T19:42:11.499Z,15.87
2022-10-16T19:44:49.495Z,15.82
2022-10-16T19:47:22.982Z,15.79
2022-10-16T19:49:54.657Z,15.78
2022-10-16T19:52:23.614Z,15.77
2022-10-16T19:54:58.069Z,15.72
2022-10-16T19:57:27.716Z,15.67
2022-10-16T19:59:56.705Z,15.65
2022-10-16T20:02:27.778Z,15.65
2022-10-16T20:04:56.770Z,15.66
2022-10-16T20:07:27.386Z,15.63
2022-10-16T20:09:57.923Z,15.62
2022-10-16T20:12:28.944Z,15.59
2022-10-16T20:14:57.597Z,15.62
2022-10-16T20:17:29.308Z,15.61
2022-10-16T20:19:58.284Z,15.60
2022-10-16T20:22:27.573Z,15.58
2022-10-16T20:24:57.171Z,15.52
2022-10-16T20:27:29.380Z,15.47
2022-10-16T20:29:58.984Z,15.44
2022-10-16T20:32:31.418Z,15.35
2022-10-16T20:35:03.166Z,15.32
2022-10-16T20:37:34.544Z,15.30
2022-10-16T20:40:03.320Z,15.27
2022-10-16T20:42:32.054Z,15.25
2022-10-16T20:45:01.050Z,15.24
2022-10-16T20:47:31.512Z,15.25
2022-10-16T20:50:00.530Z,15.21
2022-10-16T20:52:29.423Z,15.18
2022-10-16T20:54:58.863Z,15.18
2022-10-16T20:57:28.325Z,15.13
2022-10-16T21:00:01.218Z,15.15
2022-10-16T21:02:32.549Z,15.14
2022-10-16T21:05:01.713Z,15.12
2022-10-16T21:07:31.166Z,15.11
2022-10-16T21:10:01.642Z,15.09
2022-10-16T21:12:31.294Z,15.01
2022-10-16T21:15:14.454Z,14.97
2022-10-16T21:17:45.766Z,14.96
2022-10-16T21:20:15.062Z,14.96
2022-10-16T21:22:43.898Z,14.94
2022-10-16T21:25:13.648Z,14.96
2022-10-16T21:27:44.264Z,14.95
2022-10-16T21:30:13.301Z,14.95
2022-10-16T21:32:43.009Z,14.92
2022-10-16T21:35:14.101Z,14.88
2022-10-16T21:37:43.126Z,14.86
2022-10-16T21:40:12.980Z,14.81
2022-10-16T21:42:41.485Z,14.83
2022-10-16T21:45:12.243Z,14.78
2022-10-16T21:47:40.980Z,14.77
2022-10-16T21:50:10.521Z,14.74
2022-10-16T21:52:41.697Z,14.63
2022-10-16T21:55:11.601Z,14.68
2022-10-16T21:57:40.523Z,14.68
2022-10-16T22:00:11.351Z,14.64
2022-10-16T22:02:41.770Z,14.57
2022-10-16T22:05:12.126Z,14.59
2022-10-16T22:07:43.033Z,14.59
2022-10-16T22:10:12.433Z,14.58
2022-10-16T22:12:42.033Z,14.54
2022-10-16T22:15:12.901Z,14.50
2022-10-16T22:17:41.655Z,14.49
2022-10-16T22:20:12.051Z,14.46
2022-10-16T22:22:42.394Z,14.45
2022-10-16T22:25:12.568Z,14.44
2022-10-16T22:27:41.813Z,14.44
2022-10-16T22:30:11.731Z,14.42
2022-10-16T22:32:41.302Z,14.38
2022-10-16T22:35:11.962Z,14.38
2022-10-16T22:37:42.487Z,14.36
2022-10-16T22:40:13.258Z,14.35
2022-10-16T22:42:41.832Z,14.35
2022-10-16T22:45:11.974Z,14.33
2022-10-16T22:47:41.588Z,14.32
2022-10-16T22:50:11.322Z,14.31
2022-10-16T22:52:41.822Z,14.33
2022-10-16T22:55:11.127Z,14.32
2022-10-16T22:57:39.808Z,14.35
2022-10-16T23:00:12.865Z,14.29
2022-10-16T23:02:41.600Z,14.30
2022-10-16T23:05:11.682Z,14.30
2022-10-16T23:07:45.131Z,14.27
2022-10-16T23:10:14.072Z,14.22
2022-10-16T23:12:42.655Z,14.22
2022-10-16T23:15:13.044Z,14.19
2022-10-16T23:17:42.413Z,14.18
2022-10-16T23:20:12.429Z,14.21
2022-10-16T23:22:42.932Z,14.24
2022-10-16T23:25:13.384Z,14.21
2022-10-16T23:27:42.941Z,14.14
2022-10-16T23:30:12.798Z,14.09
2022-10-16T23:32:43.749Z,14.08
2022-10-16T23:35:12.741Z,14.08
2022-10-16T23:37:43.748Z,14.05
2022-10-16T23:40:14.963Z,14.04
2022-10-16T23:42:43.632Z,14.00
2022-10-16T23:45:15.414Z,13.94
2022-10-16T23:47:44.467Z,13.96
2022-10-16T23:50:13.122Z,13.95
2022-10-16T23:52:43.880Z,13.94
2022-10-16T23:55:13.349Z,13.92
2022-10-16T23:57:42.296Z,13.85
